Time;durP1;ratioP1;P1;durP2;ratioP2;P2;SDS_P1;SDS_P2;PMS_P1;PMS_P2;Temp;Humidity;BMP_temperature;BMP_pressure;BME280_temperature;BME280_humidity;BME280_pressure;Samples;Min_cycle;Max_cycle;Signal;HPM_P1;HPM_P2
2022/07/01 00:01:06;;;;;;;;;;;19.50;99.90;;;;;;5063830;28;19929;-69
2022/07/01 00:03:34;;;;;;;;;;;19.50;99.90;;;;;;5062837;28;19963;-69
2022/07/01 00:06:00;;;;;;;;;;;19.40;99.90;;;;;;5063608;28;19955;-69
2022/07/01 00:08:27;;;;;;;;;;;19.30;99.90;;;;;;5063755;28;19956;-69
2022/07/01 00:10:54;;;;;;;;;;;19.30;99.90;;;;;;5063796;28;20156;-66
2022/07/01 00:13:20;;;;;;;;;;;19.30;99.90;;;;;;5063072;28;19921;-66
2022/07/01 00:15:47;;;;;;;;;;;19.10;99.90;;;;;;5063548;28;19955;-66
2022/07/01 00:18:15;;;;;;;;;;;19.00;99.90;;;;;;5063302;28;19952;-66
2022/07/01 00:20:42;;;;;;;;;;;18.90;99.90;;;;;;5063735;28;19984;-66
2022/07/01 00:23:08;;;;;;;;;;;18.90;99.90;;;;;;5063008;28;19956;-66
2022/07/01 00:25:35;;;;;;;;;;;18.80;99.90;;;;;;5041161;28;19922;-66
2022/07/01 00:28:01;;;;;;;;;;;18.70;99.90;;;;;;5043778;28;19921;-66
2022/07/01 00:30:29;;;;;;;;;;;18.60;99.90;;;;;;5057874;28;20232;-66
2022/07/01 00:32:56;;;;;;;;;;;18.50;99.90;;;;;;5062926;28;19959;-66
2022/07/01 00:35:24;;;;;;;;;;;18.50;99.90;;;;;;5063111;28;19927;-66
2022/07/01 00:37:51;;;;;;;;;;;18.40;99.90;;;;;;5063088;28;19928;-67
2022/07/01 00:40:18;;;;;;;;;;;18.30;99.90;;;;;;5063248;28;19927;-66
2022/07/01 00:42:44;;;;;;;;;;;18.20;99.90;;;;;;5062699;28;20097;-66
2022/07/01 00:45:11;;;;;;;;;;;18.10;99.90;;;;;;5063445;28;19928;-66
2022/07/01 00:47:38;;;;;;;;;;;18.10;99.90;;;;;;5063125;28;19956;-67
2022/07/01 00:50:07;;;;;;;;;;;18.20;99.90;;;;;;5063408;28;19963;-66
2022/07/01 00:52:36;;;;;;;;;;;18.10;99.90;;;;;;5062787;28;19921;-67
2022/07/01 00:55:03;;;;;;;;;;;18.00;99.90;;;;;;5063270;28;19975;-67
2022/07/01 00:57:30;;;;;;;;;;;18.00;99.90;;;;;;5067092;28;19928;-67
2022/07/01 00:59:57;;;;;;;;;;;17.90;99.90;;;;;;5067408;28;19974;-66
2022/07/01 01:02:24;;;;;;;;;;;17.80;99.90;;;;;;5066888;28;19928;-67
2022/07/01 01:04:50;;;;;;;;;;;17.60;99.90;;;;;;5066776;28;19920;-66
2022/07/01 01:07:17;;;;;;;;;;;17.60;99.90;;;;;;5067239;28;19984;-66
2022/07/01 01:09:45;;;;;;;;;;;17.60;99.90;;;;;;5047180;28;19928;-66
2022/07/01 01:12:13;;;;;;;;;;;17.40;99.90;;;;;;5053915;28;19967;-67
2022/07/01 01:14:46;;;;;;;;;;;17.30;99.90;;;;;;5066869;28;19920;-66
2022/07/01 01:17:13;;;;;;;;;;;17.30;99.90;;;;;;5066740;28;19952;-66
2022/07/01 01:19:40;;;;;;;;;;;17.30;99.90;;;;;;5066624;28;19963;-67
2022/07/01 01:22:09;;;;;;;;;;;17.30;99.90;;;;;;5066887;28;19920;-66
2022/07/01 01:24:36;;;;;;;;;;;17.30;99.90;;;;;;5064271;28;19920;-66
2022/07/01 01:27:02;;;;;;;;;;;17.10;99.90;;;;;;5066557;28;19921;-66
2022/07/01 01:29:29;;;;;;;;;;;16.90;99.90;;;;;;5066806;28;19921;-66
2022/07/01 01:31:56;;;;;;;;;;;16.90;99.90;;;;;;5066786;28;19931;-66
2022/07/01 01:34:22;;;;;;;;;;;16.70;99.90;;;;;;5065934;28;19921;-66
2022/07/01 01:36:49;;;;;;;;;;;16.70;99.90;;;;;;5066454;28;19952;-66
2022/07/01 01:39:17;;;;;;;;;;;16.60;99.90;;;;;;5066573;28;19996;-66
2022/07/01 01:41:44;;;;;;;;;;;16.50;99.90;;;;;;5066626;28;19956;-66
2022/07/01 01:44:10;;;;;;;;;;;16.50;99.90;;;;;;5065482;28;20256;-66
2022/07/01 01:46:37;;;;;;;;;;;16.50;99.90;;;;;;5066225;28;19956;-66
2022/07/01 01:49:04;;;;;;;;;;;16.50;99.90;;;;;;5066329;28;19920;-67
2022/07/01 01:51:31;;;;;;;;;;;16.50;99.90;;;;;;5066125;28;19928;-66
2022/07/01 01:53:58;;;;;;;;;;;16.60;99.90;;;;;;5065451;28;19924;-66
2022/07/01 01:56:26;;;;;;;;;;;16.60;99.90;;;;;;5066101;28;20112;-66
2022/07/01 01:58:53;;;;;;;;;;;16.50;99.90;;;;;;5066178;28;19988;-65
2022/07/01 02:01:20;;;;;;;;;;;16.50;99.90;;;;;;5065962;28;19957;-66
2022/07/01 02:03:48;;;;;;;;;;;16.40;99.90;;;;;;5065206;28;19956;-66
2022/07/01 02:06:15;;;;;;;;;;;16.40;99.90;;;;;;5065685;28;19921;-66
2022/07/01 02:08:42;;;;;;;;;;;16.40;99.90;;;;;;5065180;28;19924;-66
2022/07/01 02:11:08;;;;;;;;;;;16.40;99.90;;;;;;5066027;28;19956;-66
2022/07/01 02:13:37;;;;;;;;;;;16.40;99.90;;;;;;5065066;28;19956;-66
2022/07/01 02:16:04;;;;;;;;;;;16.30;99.90;;;;;;5045677;28;20152;-66
2022/07/01 02:18:32;;;;;;;;;;;16.40;99.90;;;;;;5045829;28;19984;-66
2022/07/01 02:20:59;;;;;;;;;;;16.30;99.90;;;;;;5045593;28;20205;-66
2022/07/01 02:23:25;;;;;;;;;;;16.40;99.90;;;;;;5045143;28;19975;-67
2022/07/01 02:25:52;;;;;;;;;;;16.50;99.90;;;;;;5062496;28;19980;-66
2022/07/01 02:28:19;;;;;;;;;;;16.50;99.90;;;;;;5065424;28;20163;-67
2022/07/01 02:30:47;;;;;;;;;;;16.60;99.90;;;;;;5065209;28;19952;-66
2022/07/01 02:33:14;;;;;;;;;;;16.60;99.90;;;;;;5064851;28;19921;-67
2022/07/01 02:35:41;;;;;;;;;;;16.60;99.90;;;;;;5065265;28;19920;-67
2022/07/01 02:38:08;;;;;;;;;;;16.50;99.90;;;;;;5065448;28;20187;-67
2022/07/01 02:40:37;;;;;;;;;;;16.40;99.90;;;;;;5065352;28;19927;-67
2022/07/01 02:43:04;;;;;;;;;;;16.40;99.90;;;;;;5064373;28;20276;-67
2022/07/01 02:45:30;;;;;;;;;;;16.40;99.90;;;;;;5064939;28;19952;-66
2022/07/01 02:47:58;;;;;;;;;;;16.40;99.90;;;;;;5064790;28;19955;-67
2022/07/01 02:50:25;;;;;;;;;;;16.40;99.90;;;;;;5064799;28;19928;-67
2022/07/01 02:52:52;;;;;;;;;;;16.40;99.90;;;;;;5064666;28;19956;-67
2022/07/01 02:55:18;;;;;;;;;;;16.40;99.90;;;;;;5064852;28;19963;-67
2022/07/01 02:57:45;;;;;;;;;;;16.40;99.90;;;;;;5064938;28;19963;-66
2022/07/01 03:00:13;;;;;;;;;;;16.30;99.90;;;;;;5064955;28;20169;-67
2022/07/01 03:02:40;;;;;;;;;;;16.30;99.90;;;;;;5063929;28;20180;-66
2022/07/01 03:05:09;;;;;;;;;;;16.30;99.90;;;;;;5063105;28;19921;-67
2022/07/01 03:07:35;;;;;;;;;;;16.30;99.90;;;;;;5064707;28;19956;-67
2022/07/01 03:10:02;;;;;;;;;;;16.30;99.90;;;;;;5064757;28;19921;-66
2022/07/01 03:12:29;;;;;;;;;;;16.30;99.90;;;;;;5063872;28;19928;-67
2022/07/01 03:14:56;;;;;;;;;;;16.30;99.90;;;;;;5064079;28;19967;-67
2022/07/01 03:17:23;;;;;;;;;;;16.40;99.90;;;;;;5064489;28;19928;-66
2022/07/01 03:19:51;;;;;;;;;;;16.30;99.90;;;;;;5064567;28;19952;-67
2022/07/01 03:22:19;;;;;;;;;;;16.30;99.90;;;;;;5063920;28;19988;-66
2022/07/01 03:24:46;;;;;;;;;;;16.30;99.90;;;;;;5064278;28;19952;-67
2022/07/01 03:27:12;;;;;;;;;;;16.20;99.90;;;;;;5064489;28;19921;-66
2022/07/01 03:29:39;;;;;;;;;;;16.10;99.90;;;;;;5064253;28;20227;-66
2022/07/01 03:32:07;;;;;;;;;;;16.00;99.90;;;;;;5064330;28;19987;-66
2022/07/01 03:34:33;;;;;;;;;;;15.90;99.90;;;;;;5064192;28;20090;-67
2022/07/01 03:37:00;;;;;;;;;;;15.90;99.90;;;;;;5063988;28;19928;-66
2022/07/01 03:39:28;;;;;;;;;;;15.80;99.90;;;;;;5064400;28;20011;-67
2022/07/01 03:41:55;;;;;;;;;;;15.80;99.90;;;;;;5064000;28;19999;-66
2022/07/01 03:44:21;;;;;;;;;;;15.80;99.90;;;;;;5063084;28;19951;-66
2022/07/01 03:56:02;;;;;;;;;;;15.60;99.90;;;;;;5151945;27;19928;-96
2022/07/01 03:58:31;;;;;;;;;;;15.60;99.90;;;;;;5138726;28;19987;-96
2022/07/01 04:00:58;;;;;;;;;;;15.70;99.90;;;;;;5133281;22;19920;-69
2022/07/01 04:03:25;;;;;;;;;;;15.70;99.90;;;;;;5082757;28;19920;-69
2022/07/01 04:05:52;;;;;;;;;;;15.60;99.90;;;;;;5079635;28;19952;-70
2022/07/01 04:08:19;;;;;;;;;;;15.70;99.90;;;;;;5102499;28;20096;-69
2022/07/01 04:10:46;;;;;;;;;;;15.70;99.90;;;;;;5103842;28;19955;-69
2022/07/01 04:13:14;;;;;;;;;;;15.70;99.90;;;;;;5103116;28;19957;-69
2022/07/01 04:15:40;;;;;;;;;;;15.70;99.90;;;;;;5095268;28;19959;-69
2022/07/01 04:18:08;;;;;;;;;;;15.80;99.90;;;;;;5083748;28;19928;-69
2022/07/01 04:20:34;;;;;;;;;;;15.80;99.90;;;;;;5083448;28;20131;-69
2022/07/01 04:23:00;;;;;;;;;;;15.80;99.90;;;;;;5090645;28;20174;-69
2022/07/01 04:25:29;;;;;;;;;;;15.70;99.90;;;;;;5103386;28;19920;-69
2022/07/01 04:27:56;;;;;;;;;;;15.70;99.90;;;;;;5103428;28;19988;-69
2022/07/01 04:30:24;;;;;;;;;;;15.70;99.90;;;;;;5091663;28;19937;-69
2022/07/01 04:32:51;;;;;;;;;;;15.60;99.90;;;;;;5080976;28;20247;-69
2022/07/01 04:35:18;;;;;;;;;;;15.60;99.90;;;;;;5083091;28;19963;-68
2022/07/01 04:37:45;;;;;;;;;;;15.50;99.90;;;;;;5083272;28;19962;-69
2022/07/01 04:40:12;;;;;;;;;;;15.50;99.90;;;;;;5083168;28;19955;-69
2022/07/01 04:42:37;;;;;;;;;;;15.40;99.90;;;;;;5082311;28;19988;-69
2022/07/01 04:45:05;;;;;;;;;;;15.30;99.90;;;;;;5082728;28;19921;-71
2022/07/01 04:47:33;;;;;;;;;;;15.30;99.90;;;;;;5083007;28;19963;-69
2022/07/01 04:50:01;;;;;;;;;;;15.20;99.90;;;;;;5083038;28;19920;-69
2022/07/01 04:52:28;;;;;;;;;;;15.20;99.90;;;;;;5082823;28;19966;-70
2022/07/01 04:54:55;;;;;;;;;;;15.20;99.90;;;;;;5083021;28;20115;-69
2022/07/01 04:57:21;;;;;;;;;;;15.10;99.90;;;;;;5083160;28;19928;-69
2022/07/01 04:59:48;;;;;;;;;;;15.10;99.90;;;;;;5092963;28;20251;-69
2022/07/01 05:02:15;;;;;;;;;;;15.10;99.90;;;;;;5102688;28;19927;-69
2022/07/01 05:04:43;;;;;;;;;;;15.20;99.90;;;;;;5102775;28;19920;-69
2022/07/01 05:07:27;;;;;;;;;;;15.20;99.90;;;;;;5102195;28;19927;-69
2022/07/01 05:09:55;;;;;;;;;;;15.10;99.90;;;;;;5101141;28;19920;-68
2022/07/01 05:12:22;;;;;;;;;;;15.00;99.90;;;;;;5103128;28;20176;-68
2022/07/01 05:14:49;;;;;;;;;;;15.00;99.90;;;;;;5103147;28;19920;-69
2022/07/01 05:17:16;;;;;;;;;;;14.90;99.90;;;;;;5101977;28;19956;-69
2022/07/01 05:22:27;;;;;;;;;;;14.90;99.90;;;;;;5102914;28;20725;-69
2022/07/01 05:24:55;;;;;;;;;;;14.80;99.90;;;;;;5087579;28;20115;-69
2022/07/01 05:27:24;;;;;;;;;;;14.70;99.90;;;;;;5083166;28;19943;-69
2022/07/01 05:29:52;;;;;;;;;;;14.70;99.90;;;;;;5083113;28;19992;-69
2022/07/01 05:32:18;;;;;;;;;;;14.60;99.90;;;;;;5082688;28;20162;-69
2022/07/01 05:34:46;;;;;;;;;;;14.60;99.90;;;;;;5082594;28;20250;-69
2022/07/01 05:37:16;;;;;;;;;;;14.60;99.90;;;;;;5083183;28;19974;-69
2022/07/01 05:39:43;;;;;;;;;;;14.70;99.90;;;;;;5083225;28;19920;-73
2022/07/01 05:42:10;;;;;;;;;;;14.70;99.90;;;;;;5082791;28;19954;-69
2022/07/01 05:44:36;;;;;;;;;;;14.70;99.90;;;;;;5086583;28;19959;-69
2022/07/01 05:47:03;;;;;;;;;;;14.70;99.90;;;;;;5086370;28;19940;-69
2022/07/01 05:49:30;;;;;;;;;;;14.60;99.90;;;;;;5086123;28;20200;-69
2022/07/01 05:51:58;;;;;;;;;;;14.60;99.90;;;;;;5085565;28;19959;-69
2022/07/01 05:54:24;;;;;;;;;;;14.60;99.90;;;;;;5085285;28;19983;-69
2022/07/01 05:56:51;;;;;;;;;;;14.60;99.90;;;;;;5085571;28;20170;-69
2022/07/01 05:59:18;;;;;;;;;;;14.60;99.90;;;;;;5085872;28;19944;-70
2022/07/01 06:01:46;;;;;;;;;;;14.60;99.90;;;;;;5085716;28;19920;-69
2022/07/01 06:04:12;;;;;;;;;;;14.50;99.90;;;;;;5085364;28;19920;-70
2022/07/01 06:06:41;;;;;;;;;;;14.50;99.90;;;;;;5082734;28;19920;-70
2022/07/01 06:09:09;;;;;;;;;;;14.50;99.90;;;;;;5085803;28;19920;-69
2022/07/01 06:11:36;;;;;;;;;;;14.50;99.90;;;;;;5086097;28;20243;-70
2022/07/01 06:14:02;;;;;;;;;;;14.50;99.90;;;;;;5084861;28;19984;-71
2022/07/01 06:16:29;;;;;;;;;;;14.40;99.90;;;;;;5085346;28;20132;-70
2022/07/01 06:18:56;;;;;;;;;;;14.40;99.90;;;;;;5085610;28;20218;-68
2022/07/01 06:21:22;;;;;;;;;;;14.40;99.90;;;;;;5085421;28;20112;-70
2022/07/01 06:23:49;;;;;;;;;;;14.40;99.90;;;;;;5085331;28;19921;-69
2022/07/01 06:26:17;;;;;;;;;;;14.40;99.90;;;;;;5085644;28;19991;-69
2022/07/01 06:28:44;;;;;;;;;;;14.50;99.90;;;;;;5084447;28;20023;-69
2022/07/01 06:31:10;;;;;;;;;;;14.50;99.90;;;;;;5085268;28;19959;-69
2022/07/01 06:33:37;;;;;;;;;;;14.60;99.90;;;;;;5084436;28;19921;-69
2022/07/01 06:36:04;;;;;;;;;;;14.70;99.90;;;;;;5082382;28;19983;-70
2022/07/01 06:38:31;;;;;;;;;;;14.80;99.90;;;;;;5089263;28;19962;-69
2022/07/01 06:43:43;;;;;;;;;;;14.90;99.90;;;;;;5077005;28;19963;-69
2022/07/01 06:46:10;;;;;;;;;;;14.80;99.90;;;;;;5084646;28;19920;-69
2022/07/01 06:48:37;;;;;;;;;;;14.80;99.90;;;;;;5084946;28;19924;-69
2022/07/01 06:51:03;;;;;;;;;;;14.80;99.90;;;;;;5092491;28;20183;-69
2022/07/01 06:53:30;;;;;;;;;;;14.80;99.90;;;;;;5092032;28;19920;-69
2022/07/01 06:55:57;;;;;;;;;;;14.80;99.90;;;;;;5083954;28;19920;-69
2022/07/01 06:58:24;;;;;;;;;;;14.70;99.90;;;;;;5084141;28;20239;-69
2022/07/01 07:00:52;;;;;;;;;;;14.70;99.90;;;;;;5084680;28;19921;-70
2022/07/01 07:03:19;;;;;;;;;;;14.80;99.90;;;;;;5083806;28;19962;-69
2022/07/01 07:05:45;;;;;;;;;;;14.80;99.90;;;;;;5098000;28;19920;-69
2022/07/01 07:08:12;;;;;;;;;;;14.80;99.90;;;;;;5091210;28;19952;-69
2022/07/01 07:10:39;;;;;;;;;;;14.80;99.90;;;;;;5084337;28;19984;-69
2022/07/01 07:13:05;;;;;;;;;;;14.80;99.90;;;;;;5083695;28;19921;-69
2022/07/01 07:15:32;;;;;;;;;;;14.80;99.90;;;;;;5084479;28;19956;-70
2022/07/01 07:18:00;;;;;;;;;;;14.80;99.90;;;;;;5084145;28;19963;-70
2022/07/01 07:20:27;;;;;;;;;;;14.80;99.90;;;;;;5080112;28;19959;-70
2022/07/01 07:22:54;;;;;;;;;;;14.90;99.90;;;;;;5073079;28;20007;-70
2022/07/01 07:25:21;;;;;;;;;;;14.90;99.90;;;;;;5081332;28;19948;-71
2022/07/01 07:27:47;;;;;;;;;;;14.90;99.90;;;;;;5082638;28;20267;-70
2022/07/01 07:30:14;;;;;;;;;;;15.00;99.90;;;;;;5084042;28;20143;-70
2022/07/01 07:32:40;;;;;;;;;;;15.10;99.90;;;;;;5083879;28;19999;-70
2022/07/01 07:35:09;;;;;;;;;;;15.10;99.90;;;;;;5080537;28;19955;-70
2022/07/01 07:37:36;;;;;;;;;;;15.10;99.90;;;;;;5083090;28;19921;-70
2022/07/01 07:40:03;;;;;;;;;;;15.10;99.90;;;;;;5083547;28;19952;-71
2022/07/01 07:42:30;;;;;;;;;;;15.10;99.90;;;;;;5082965;28;20220;-70
2022/07/01 07:44:57;;;;;;;;;;;15.10;99.90;;;;;;5083534;28;20208;-70
2022/07/01 07:47:23;;;;;;;;;;;15.10;99.90;;;;;;5083282;28;19948;-70
2022/07/01 07:49:50;;;;;;;;;;;15.10;99.90;;;;;;5084048;28;19924;-70
2022/07/01 07:52:18;;;;;;;;;;;15.10;99.90;;;;;;5082853;28;19951;-70
2022/07/01 07:54:45;;;;;;;;;;;15.10;99.90;;;;;;5079921;28;19935;-70
2022/07/01 07:57:12;;;;;;;;;;;15.10;99.90;;;;;;5083342;28;19943;-70
2022/07/01 07:59:38;;;;;;;;;;;15.00;99.90;;;;;;5083312;28;19921;-70
2022/07/01 08:02:05;;;;;;;;;;;15.00;99.90;;;;;;5083469;28;20180;-70
2022/07/01 08:04:32;;;;;;;;;;;15.00;99.90;;;;;;5080350;28;19983;-70
2022/07/01 08:06:58;;;;;;;;;;;14.90;99.90;;;;;;5082828;28;19979;-69
2022/07/01 08:09:26;;;;;;;;;;;15.00;99.90;;;;;;5083682;28;19963;-70
2022/07/01 08:11:53;;;;;;;;;;;15.00;99.90;;;;;;5083534;28;19959;-71
2022/07/01 08:14:21;;;;;;;;;;;15.00;99.90;;;;;;5079856;28;19920;-70
2022/07/01 08:16:47;;;;;;;;;;;15.00;99.90;;;;;;5082471;28;19988;-70
2022/07/01 08:19:14;;;;;;;;;;;15.00;99.90;;;;;;5083173;28;19927;-70
2022/07/01 08:21:41;;;;;;;;;;;15.10;99.90;;;;;;5083057;28;19942;-70
2022/07/01 08:24:07;;;;;;;;;;;15.10;99.90;;;;;;5082670;28;19921;-70
2022/07/01 08:26:35;;;;;;;;;;;15.00;99.90;;;;;;5083255;28;19926;-70
2022/07/01 08:29:02;;;;;;;;;;;15.00;99.90;;;;;;5083468;28;19983;-70
2022/07/01 08:31:29;;;;;;;;;;;15.00;99.90;;;;;;5083135;28;19928;-70
2022/07/01 08:33:56;;;;;;;;;;;15.00;99.90;;;;;;5083078;28;19935;-70
2022/07/01 08:36:22;;;;;;;;;;;15.00;99.90;;;;;;5083354;28;19921;-71
2022/07/01 08:38:49;;;;;;;;;;;15.00;99.90;;;;;;5083319;28;19920;-70
2022/07/01 08:41:17;;;;;;;;;;;14.90;99.90;;;;;;5082113;28;19920;-70
2022/07/01 08:43:45;;;;;;;;;;;14.90;99.90;;;;;;5081296;28;19921;-70
2022/07/01 08:46:12;;;;;;;;;;;15.00;99.90;;;;;;5082792;28;19959;-70
2022/07/01 08:48:42;;;;;;;;;;;15.00;99.90;;;;;;5082846;28;19987;-70
2022/07/01 08:51:09;;;;;;;;;;;14.90;99.90;;;;;;5083405;28;19974;-70
2022/07/01 08:53:35;;;;;;;;;;;14.90;99.90;;;;;;5082379;28;19944;-70
2022/07/01 08:58:48;;;;;;;;;;;14.90;99.90;;;;;;5075329;28;19916;-70
2022/07/01 09:01:16;;;;;;;;;;;14.90;99.90;;;;;;5081796;28;19928;-70
2022/07/01 09:03:45;;;;;;;;;;;14.90;99.90;;;;;;5079774;28;19932;-70
2022/07/01 09:06:12;;;;;;;;;;;14.90;99.90;;;;;;5082696;28;19920;-70
2022/07/01 09:08:39;;;;;;;;;;;14.90;99.90;;;;;;5082810;28;19920;-70
2022/07/01 09:11:11;;;;;;;;;;;14.80;99.90;;;;;;5083012;28;19975;-70
2022/07/01 09:13:38;;;;;;;;;;;14.80;99.90;;;;;;5082106;28;19964;-70
2022/07/01 09:16:12;;;;;;;;;;;14.70;99.90;;;;;;5082957;28;19926;-70
2022/07/01 09:18:39;;;;;;;;;;;14.70;99.90;;;;;;5086446;28;19924;-70
2022/07/01 09:21:08;;;;;;;;;;;14.70;99.90;;;;;;5086765;28;19974;-70
2022/07/01 09:23:35;;;;;;;;;;;14.70;99.90;;;;;;5085738;28;19920;-70
2022/07/01 09:26:02;;;;;;;;;;;14.80;99.90;;;;;;5085946;28;19920;-70
2022/07/01 09:28:28;;;;;;;;;;;14.80;99.90;;;;;;5086434;28;19983;-70
2022/07/01 09:30:56;;;;;;;;;;;14.80;99.90;;;;;;5086253;28;20215;-69
2022/07/01 09:33:26;;;;;;;;;;;14.80;99.90;;;;;;5086050;28;19931;-70
2022/07/01 09:35:53;;;;;;;;;;;14.70;99.90;;;;;;5085995;28;20116;-70
2022/07/01 09:38:21;;;;;;;;;;;14.70;99.90;;;;;;5086104;28;19928;-70
2022/07/01 09:40:48;;;;;;;;;;;14.60;99.90;;;;;;5086058;28;19947;-70
2022/07/01 09:43:16;;;;;;;;;;;14.60;99.90;;;;;;5085367;28;19959;-71
2022/07/01 09:45:49;;;;;;;;;;;14.50;99.90;;;;;;5086063;28;19959;-70
2022/07/01 09:48:16;;;;;;;;;;;14.50;99.90;;;;;;5100150;22;19951;-70
2022/07/01 09:50:44;;;;;;;;;;;14.60;99.90;;;;;;5086114;28;19944;-70
2022/07/01 09:53:11;;;;;;;;;;;14.60;99.90;;;;;;5085630;28;19921;-70
2022/07/01 09:55:39;;;;;;;;;;;14.60;99.90;;;;;;5085728;28;20273;-70
2022/07/01 09:58:07;;;;;;;;;;;14.70;99.90;;;;;;5079332;28;20371;-70
2022/07/01 10:00:35;;;;;;;;;;;14.80;99.90;;;;;;5065991;28;19991;-70
2022/07/01 10:03:02;;;;;;;;;;;14.80;99.90;;;;;;5065470;28;20224;-70
2022/07/01 10:05:30;;;;;;;;;;;14.80;99.90;;;;;;5065439;28;20246;-70
2022/07/01 10:08:03;;;;;;;;;;;14.80;99.90;;;;;;5062500;28;19963;-70
2022/07/01 10:10:39;;;;;;;;;;;14.80;99.90;;;;;;5045713;28;20165;-70
2022/07/01 10:13:06;;;;;;;;;;;14.70;99.90;;;;;;5051950;28;19952;-70
2022/07/01 10:15:33;;;;;;;;;;;14.70;99.90;;;;;;5064088;28;19928;-70
2022/07/01 10:18:00;;;;;;;;;;;14.60;99.90;;;;;;5065099;28;20004;-70
2022/07/01 10:20:27;;;;;;;;;;;14.60;99.90;;;;;;5063205;28;20212;-70
2022/07/01 10:23:02;;;;;;;;;;;14.60;99.90;;;;;;5064826;28;20004;-70
2022/07/01 10:25:39;;;;;;;;;;;14.60;99.90;;;;;;5065022;28;19925;-70
2022/07/01 10:28:13;;;;;;;;;;;14.60;99.90;;;;;;5064361;28;20152;-70
2022/07/01 10:30:49;;;;;;;;;;;14.60;99.90;;;;;;5063122;28;20000;-70
2022/07/01 10:33:27;;;;;;;;;;;14.60;99.90;;;;;;5064826;28;19928;-70
2022/07/01 10:35:53;;;;;;;;;;;14.60;99.90;;;;;;5064993;28;20208;-70
2022/07/01 10:38:21;;;;;;;;;;;14.60;99.90;;;;;;5064810;28;20204;-69
2022/07/01 10:40:49;;;;;;;;;;;14.50;99.90;;;;;;5065142;28;20160;-70
2022/07/01 10:43:17;;;;;;;;;;;14.50;99.90;;;;;;5064756;28;19966;-70
2022/07/01 10:45:44;;;;;;;;;;;14.60;99.90;;;;;;5064716;28;19927;-70
2022/07/01 10:48:20;;;;;;;;;;;14.60;99.90;;;;;;5064792;28;19962;-70
2022/07/01 10:50:47;;;;;;;;;;;14.50;99.90;;;;;;5063250;28;19920;-69
2022/07/01 10:53:14;;;;;;;;;;;14.60;99.90;;;;;;5064169;28;20234;-69
2022/07/01 10:55:45;;;;;;;;;;;14.60;99.90;;;;;;5064917;28;20359;-69
2022/07/01 10:58:12;;;;;;;;;;;14.70;99.90;;;;;;5065221;28;19983;-69
2022/07/01 11:00:41;;;;;;;;;;;14.70;99.90;;;;;;5065105;28;19952;-70
2022/07/01 11:03:15;;;;;;;;;;;14.70;99.90;;;;;;5064495;28;19973;-69
2022/07/01 11:05:42;;;;;;;;;;;14.70;99.90;;;;;;5065021;28;20358;-70
2022/07/01 11:08:11;;;;;;;;;;;14.70;99.90;;;;;;5064774;28;20219;-70
2022/07/01 11:10:38;;;;;;;;;;;14.80;99.90;;;;;;5064672;28;19920;-70
2022/07/01 11:13:06;;;;;;;;;;;14.80;99.90;;;;;;5064087;28;19944;-69
2022/07/01 11:15:34;;;;;;;;;;;14.70;99.90;;;;;;5064722;28;19959;-69
2022/07/01 11:18:01;;;;;;;;;;;14.80;99.90;;;;;;5064853;28;19920;-70
2022/07/01 11:20:30;;;;;;;;;;;14.80;99.90;;;;;;5064568;28;19967;-69
2022/07/01 11:22:58;;;;;;;;;;;14.80;99.90;;;;;;5063156;28;19921;-69
2022/07/01 11:25:24;;;;;;;;;;;14.80;99.90;;;;;;5064496;28;19956;-69
2022/07/01 11:27:52;;;;;;;;;;;14.80;99.90;;;;;;5064545;28;20275;-69
2022/07/01 11:30:23;;;;;;;;;;;14.70;99.90;;;;;;5061663;28;19967;-69
2022/07/01 11:32:50;;;;;;;;;;;14.70;99.90;;;;;;5063923;28;19921;-69
2022/07/01 11:40:51;;;;;;;;;;;14.70;99.90;;;;;;5057316;28;19939;-70
2022/07/01 11:43:19;;;;;;;;;;;14.70;99.90;;;;;;5060891;28;19984;-70
2022/07/01 11:45:47;;;;;;;;;;;14.60;99.90;;;;;;5063246;28;20243;-70
2022/07/01 11:48:28;;;;;;;;;;;14.60;99.90;;;;;;5063794;28;19921;-69
2022/07/01 11:50:54;;;;;;;;;;;14.60;99.90;;;;;;5064077;28;19988;-70
2022/07/01 11:53:21;;;;;;;;;;;14.50;99.90;;;;;;5048373;28;19921;-70
2022/07/01 11:55:49;;;;;;;;;;;14.50;99.90;;;;;;5058672;28;19920;-70
2022/07/01 11:58:15;;;;;;;;;;;14.50;99.90;;;;;;5061382;28;19927;-69
2022/07/01 12:00:50;;;;;;;;;;;14.50;99.90;;;;;;5041361;28;19928;-70
2022/07/01 12:03:29;;;;;;;;;;;14.50;99.90;;;;;;5043617;28;19921;-70
2022/07/01 12:05:56;;;;;;;;;;;14.60;99.90;;;;;;5043720;28;19929;-70
2022/07/01 12:08:23;;;;;;;;;;;14.50;99.90;;;;;;5043825;28;19928;-70
2022/07/01 12:10:52;;;;;;;;;;;14.60;99.90;;;;;;5043471;28;20452;-70
2022/07/01 12:13:21;;;;;;;;;;;14.60;99.90;;;;;;5054140;28;19956;-70
2022/07/01 12:15:49;;;;;;;;;;;14.60;99.90;;;;;;5063193;28;19952;-70
2022/07/01 12:18:16;;;;;;;;;;;14.50;99.90;;;;;;5063189;28;20104;-70
2022/07/01 12:20:48;;;;;;;;;;;14.50;99.90;;;;;;5063139;28;19991;-70
2022/07/01 12:23:15;;;;;;;;;;;14.40;99.90;;;;;;5062962;28;19967;-70
2022/07/01 12:25:47;;;;;;;;;;;14.50;99.90;;;;;;5060845;28;19992;-70
2022/07/01 12:28:24;;;;;;;;;;;14.50;99.90;;;;;;5063767;28;19921;-70
2022/07/01 12:31:00;;;;;;;;;;;14.40;99.90;;;;;;5063572;28;20220;-70
2022/07/01 12:33:27;;;;;;;;;;;14.40;99.90;;;;;;5062761;28;19921;-70
2022/07/01 12:35:54;;;;;;;;;;;14.30;99.90;;;;;;5063511;28;19921;-70
2022/07/01 12:38:21;;;;;;;;;;;14.30;99.90;;;;;;5060574;28;19955;-70
2022/07/01 12:40:48;;;;;;;;;;;14.30;99.90;;;;;;5056011;28;19927;-69
2022/07/01 12:43:24;;;;;;;;;;;14.30;99.90;;;;;;5055122;28;19956;-70
2022/07/01 12:45:51;;;;;;;;;;;14.30;99.90;;;;;;5053872;28;19921;-70
2022/07/01 12:48:19;;;;;;;;;;;14.30;99.90;;;;;;5054514;28;19921;-70
2022/07/01 12:50:46;;;;;;;;;;;14.40;99.90;;;;;;5062361;28;19956;-70
2022/07/01 12:53:18;;;;;;;;;;;14.50;99.90;;;;;;5060941;28;19920;-69
2022/07/01 12:55:45;;;;;;;;;;;14.50;99.90;;;;;;5067378;28;19956;-68
2022/07/01 12:58:13;;;;;;;;;;;14.60;99.90;;;;;;5067467;28;19952;-70
2022/07/01 13:00:40;;;;;;;;;;;14.60;99.90;;;;;;5064781;28;19952;-69
2022/07/01 13:03:07;;;;;;;;;;;14.60;99.90;;;;;;5066776;28;19921;-70
2022/07/01 13:05:36;;;;;;;;;;;14.60;99.90;;;;;;5066840;28;20148;-70
2022/07/01 13:08:03;;;;;;;;;;;14.60;99.90;;;;;;5066882;28;19920;-70
2022/07/01 13:10:30;;;;;;;;;;;14.60;99.90;;;;;;5067187;28;20183;-69
2022/07/01 13:12:57;;;;;;;;;;;14.60;99.90;;;;;;5066416;28;19921;-70
2022/07/01 13:15:24;;;;;;;;;;;14.60;99.90;;;;;;5066763;28;19975;-70
2022/07/01 13:17:51;;;;;;;;;;;14.60;99.90;;;;;;5066728;28;19920;-70
2022/07/01 13:20:18;;;;;;;;;;;14.60;99.90;;;;;;5066693;28;20119;-70
2022/07/01 13:22:46;;;;;;;;;;;14.60;99.90;;;;;;5066431;28;19960;-69
2022/07/01 13:25:13;;;;;;;;;;;14.50;99.90;;;;;;5076968;28;19928;-69
2022/07/01 13:27:40;;;;;;;;;;;14.50;99.90;;;;;;5086496;28;19996;-69
2022/07/01 13:30:08;;;;;;;;;;;14.50;99.90;;;;;;5073326;28;19920;-68
2022/07/01 13:32:35;;;;;;;;;;;14.50;99.90;;;;;;5065030;28;19928;-69
2022/07/01 13:35:02;;;;;;;;;;;14.50;99.90;;;;;;5068049;28;19959;-68
2022/07/01 13:37:29;;;;;;;;;;;14.50;99.90;;;;;;5086785;28;19963;-68
2022/07/01 13:40:04;;;;;;;;;;;14.60;99.90;;;;;;5078238;28;19952;-68
2022/07/01 13:42:31;;;;;;;;;;;14.60;99.90;;;;;;5065824;28;19956;-68
2022/07/01 13:44:57;;;;;;;;;;;14.70;99.90;;;;;;5062103;28;19921;-67
2022/07/01 13:47:24;;;;;;;;;;;14.70;99.90;;;;;;5060046;28;19956;-67
2022/07/01 13:49:51;;;;;;;;;;;14.70;99.90;;;;;;5065831;28;19928;-67
2022/07/01 13:52:18;;;;;;;;;;;14.80;99.90;;;;;;5065880;28;19928;-67
2022/07/01 13:54:44;;;;;;;;;;;14.90;99.90;;;;;;5065911;28;19964;-67
2022/07/01 13:57:12;;;;;;;;;;;14.90;99.90;;;;;;5066241;28;19928;-66
2022/07/01 13:59:40;;;;;;;;;;;14.90;99.90;;;;;;5066324;28;19921;-67
2022/07/01 14:02:06;;;;;;;;;;;15.10;99.90;;;;;;5066227;28;19943;-67
2022/07/01 14:04:33;;;;;;;;;;;15.30;99.90;;;;;;5064733;28;19929;-68
2022/07/01 14:07:00;;;;;;;;;;;15.40;99.90;;;;;;5062559;28;19964;-67
2022/07/01 14:09:26;;;;;;;;;;;15.50;99.90;;;;;;5065733;28;19963;-70
2022/07/01 14:11:53;;;;;;;;;;;15.50;99.90;;;;;;5062386;28;20164;-67
2022/07/01 14:14:21;;;;;;;;;;;15.50;99.90;;;;;;5064899;28;19920;-69
2022/07/01 14:16:48;;;;;;;;;;;15.60;99.90;;;;;;5064987;28;19920;-66
2022/07/01 14:19:14;;;;;;;;;;;15.70;99.90;;;;;;5066063;28;19920;-67
2022/07/01 14:21:41;;;;;;;;;;;15.80;99.90;;;;;;5065804;28;19928;-68
2022/07/01 14:24:08;;;;;;;;;;;16.00;99.90;;;;;;5057037;28;19961;-68
2022/07/01 14:26:34;;;;;;;;;;;16.10;99.90;;;;;;5065002;28;19971;-68
2022/07/01 14:29:01;;;;;;;;;;;16.20;99.90;;;;;;5065210;28;19943;-68
2022/07/01 14:31:29;;;;;;;;;;;16.40;99.90;;;;;;5065222;28;19959;-67
2022/07/01 14:33:56;;;;;;;;;;;16.70;99.90;;;;;;5064342;28;19927;-68
2022/07/01 14:36:22;;;;;;;;;;;17.20;99.90;;;;;;5063539;28;19978;-68
2022/07/01 14:38:49;;;;;;;;;;;17.40;99.90;;;;;;5064203;28;19956;-68
2022/07/01 14:41:16;;;;;;;;;;;17.50;99.90;;;;;;5064298;28;19920;-68